createdAt,value
2017-08-19T00:00:03.785Z,0
2017-08-19T00:01:04.137Z,0
2017-08-19T00:02:03.782Z,0
2017-08-19T00:03:03.797Z,0
2017-08-19T00:04:03.467Z,0
2017-08-19T00:05:03.458Z,0
2017-08-19T00:06:04.082Z,0
2017-08-19T00:07:04.094Z,0
2017-08-19T00:08:03.768Z,0
2017-08-19T00:09:04.073Z,0
2017-08-19T00:10:03.748Z,0
2017-08-19T00:11:03.743Z,0
2017-08-19T00:12:04.078Z,0
2017-08-19T00:13:04.066Z,0
2017-08-19T00:14:03.752Z,0
2017-08-19T00:15:04.072Z,0
2017-08-19T00:16:03.729Z,0
2017-08-19T00:17:03.410Z,0
2017-08-19T00:18:03.394Z,0
2017-08-19T00:19:04.058Z,0
2017-08-19T00:20:03.735Z,0
2017-08-19T00:21:03.933Z,0
2017-08-19T00:22:04.020Z,0
2017-08-19T00:23:04.014Z,0
2017-08-19T00:24:04.028Z,0
2017-08-19T00:25:03.684Z,0
2017-08-19T00:26:04.019Z,0
2017-08-19T00:27:03.676Z,0
2017-08-19T00:28:03.992Z,0
2017-08-19T00:29:03.349Z,0
2017-08-19T00:30:03.983Z,0
2017-08-19T00:31:03.026Z,0
2017-08-19T00:32:03.340Z,0
2017-08-19T00:33:03.990Z,0
2017-08-19T00:34:03.342Z,0
2017-08-19T00:35:03.317Z,0
2017-08-19T00:36:03.957Z,0
2017-08-19T00:37:03.630Z,0
2017-08-19T00:38:03.309Z,0
2017-08-19T00:39:03.621Z,0
2017-08-19T00:40:03.333Z,0
2017-08-19T00:41:03.627Z,0
2017-08-19T00:42:03.609Z,0
2017-08-19T00:43:03.609Z,0
2017-08-19T00:44:03.606Z,0
2017-08-19T00:45:03.297Z,0
2017-08-19T00:46:03.911Z,0
2017-08-19T00:47:03.915Z,0
2017-08-19T00:48:03.290Z,0
2017-08-19T00:49:03.916Z,0
2017-08-19T00:50:03.593Z,0
2017-08-19T00:51:03.570Z,0
2017-08-19T00:52:03.241Z,0
2017-08-19T00:53:03.561Z,0
2017-08-19T00:54:03.884Z,0
2017-08-19T00:55:03.263Z,0
2017-08-19T00:56:03.234Z,0
2017-08-19T00:57:02.904Z,0
2017-08-19T00:58:03.879Z,0
2017-08-19T00:59:03.535Z,0
2017-08-19T01:00:03.875Z,0
2017-08-19T01:01:03.535Z,0
2017-08-19T01:02:03.874Z,0
2017-08-19T01:03:03.528Z,0
2017-08-19T01:04:03.512Z,0
2017-08-19T01:05:03.507Z,0
2017-08-19T01:06:03.511Z,0
2017-08-19T01:07:03.542Z,0
2017-08-19T01:08:03.491Z,0
2017-08-19T01:09:03.171Z,0
2017-08-19T01:10:03.478Z,0
2017-08-19T01:11:03.496Z,0
2017-08-19T01:12:03.506Z,0
2017-08-19T01:13:02.836Z,0
2017-08-19T01:14:03.466Z,0
2017-08-19T01:15:03.459Z,0
2017-08-19T01:16:02.814Z,0
2017-08-19T01:17:03.453Z,0
2017-08-19T01:18:03.123Z,0
2017-08-19T01:19:03.119Z,0
2017-08-19T01:20:03.448Z,0
2017-08-19T01:21:03.432Z,0
2017-08-19T01:22:03.469Z,0
2017-08-19T01:23:03.443Z,0
2017-08-19T01:24:03.419Z,0
2017-08-19T01:25:03.095Z,0
2017-08-19T01:26:03.431Z,0
2017-08-19T01:27:03.737Z,0
2017-08-19T01:28:03.738Z,0
2017-08-19T01:29:03.396Z,0
2017-08-19T01:30:03.733Z,0
2017-08-19T01:31:03.708Z,0
2017-08-19T01:32:03.098Z,0
2017-08-19T01:33:03.064Z,0
2017-08-19T01:34:03.737Z,0
2017-08-19T01:35:03.691Z,0
2017-08-19T01:36:03.379Z,0
2017-08-19T01:37:03.733Z,0
2017-08-19T01:38:03.355Z,0
2017-08-19T01:39:03.050Z,0
2017-08-19T01:40:03.676Z,0
2017-08-19T01:41:03.349Z,0
2017-08-19T01:42:03.334Z,0
2017-08-19T01:43:03.007Z,0
2017-08-19T01:44:03.328Z,0
2017-08-19T01:45:03.041Z,0
2017-08-19T01:46:03.368Z,0
2017-08-19T01:47:02.932Z,0
2017-08-19T01:48:03.310Z,0
2017-08-19T01:49:03.648Z,0
2017-08-19T01:50:03.299Z,0
2017-08-19T01:51:02.979Z,0
2017-08-19T01:52:03.627Z,0
2017-08-19T01:53:02.961Z,0
2017-08-19T01:54:02.978Z,0
2017-08-19T01:55:03.272Z,0
2017-08-19T01:56:03.275Z,0
2017-08-19T01:57:03.580Z,0
2017-08-19T01:58:02.932Z,0
2017-08-19T01:59:03.271Z,0
2017-08-19T02:00:03.269Z,0
2017-08-19T02:01:03.559Z,0
2017-08-19T02:02:02.914Z,0
2017-08-19T02:03:03.248Z,0
2017-08-19T02:04:03.547Z,0
2017-08-19T02:05:03.246Z,0
2017-08-19T02:06:02.913Z,0
2017-08-19T02:07:02.267Z,0
2017-08-19T02:08:03.220Z,0
2017-08-19T02:09:03.557Z,0
2017-08-19T02:10:03.532Z,0
2017-08-19T02:11:03.509Z,0
2017-08-19T02:12:03.218Z,0
2017-08-19T02:13:02.886Z,0
2017-08-19T02:14:03.507Z,0
2017-08-19T02:15:03.489Z,0
2017-08-19T02:16:03.170Z,0
2017-08-19T02:17:03.502Z,0
2017-08-19T02:18:02.843Z,0
2017-08-19T02:19:03.516Z,0
2017-08-19T02:20:03.143Z,0
2017-08-19T02:21:02.824Z,0
2017-08-19T02:22:03.471Z,0
2017-08-19T02:23:02.842Z,0
2017-08-19T02:24:03.444Z,0
2017-08-19T02:25:03.148Z,0
2017-08-19T02:26:03.123Z,0
2017-08-19T02:27:02.814Z,0
2017-08-19T02:28:03.096Z,0
2017-08-19T02:29:02.793Z,0
2017-08-19T02:30:03.434Z,0
2017-08-19T02:31:03.090Z,0
2017-08-19T02:32:03.407Z,0
2017-08-19T02:33:03.401Z,0
2017-08-19T02:34:03.076Z,0
2017-08-19T02:35:03.073Z,0
2017-08-19T02:36:03.095Z,0
2017-08-19T02:37:03.373Z,0
2017-08-19T02:38:03.045Z,0
2017-08-19T02:39:03.374Z,0
2017-08-19T02:40:03.042Z,0
2017-08-19T02:41:03.367Z,0
2017-08-19T02:42:03.021Z,0
2017-08-19T02:43:03.045Z,0
2017-08-19T02:44:03.344Z,0
2017-08-19T02:45:03.353Z,0
2017-08-19T02:46:03.374Z,0
2017-08-19T02:47:03.005Z,0
2017-08-19T02:48:02.370Z,0
2017-08-19T02:49:03.026Z,0
2017-08-19T02:50:02.999Z,0
2017-08-19T02:51:02.995Z,0
2017-08-19T02:52:03.294Z,0
2017-08-19T02:53:03.308Z,0
2017-08-19T02:54:02.990Z,0
2017-08-19T02:55:03.295Z,0
2017-08-19T02:56:03.002Z,0
2017-08-19T02:57:03.318Z,0
2017-08-19T02:58:03.286Z,0
2017-08-19T02:59:02.973Z,0
2017-08-19T03:00:03.281Z,0
2017-08-19T03:01:03.249Z,0
2017-08-19T03:02:02.998Z,0
2017-08-19T03:03:02.928Z,0
2017-08-19T03:04:02.909Z,0
2017-08-19T03:05:02.905Z,0
2017-08-19T03:06:02.609Z,0
2017-08-19T03:07:03.246Z,0
2017-08-19T03:08:03.207Z,0
2017-08-19T03:09:03.248Z,0
2017-08-19T03:10:03.196Z,0
2017-08-19T03:11:02.570Z,0
2017-08-19T03:12:02.865Z,0
2017-08-19T03:13:03.186Z,0
2017-08-19T03:14:02.867Z,0
2017-08-19T03:15:03.192Z,0
2017-08-19T03:16:07.098Z,0
2017-08-19T03:17:02.845Z,0
2017-08-19T03:18:02.515Z,0
2017-08-19T03:19:02.523Z,0
2017-08-19T03:20:02.820Z,0
2017-08-19T03:21:03.154Z,0
2017-08-19T03:22:03.129Z,0
2017-08-19T03:23:03.142Z,0
2017-08-19T03:24:02.828Z,0
2017-08-19T03:25:02.481Z,0
2017-08-19T03:26:02.794Z,0
2017-08-19T03:27:03.107Z,0
2017-08-19T03:28:02.784Z,0
2017-08-19T03:29:03.121Z,0
2017-08-19T03:30:02.768Z,0
2017-08-19T03:31:03.111Z,0
2017-08-19T03:32:02.448Z,0
2017-08-19T03:33:02.759Z,0
2017-08-19T03:34:02.444Z,0
2017-08-19T03:35:02.112Z,0
2017-08-19T03:36:02.443Z,0
2017-08-19T03:37:02.753Z,0
2017-08-19T03:38:02.411Z,0
2017-08-19T03:39:02.750Z,0
2017-08-19T03:40:02.721Z,0
2017-08-19T03:41:02.400Z,0
2017-08-19T03:42:02.066Z,0
2017-08-19T03:43:03.085Z,0
2017-08-19T03:44:03.026Z,0
2017-08-19T03:45:03.023Z,0
2017-08-19T03:46:02.427Z,0
2017-08-19T03:47:02.365Z,0
2017-08-19T03:48:02.386Z,0
2017-08-19T03:49:02.351Z,0
2017-08-19T03:50:02.667Z,0
2017-08-19T03:51:02.998Z,0
2017-08-19T03:52:02.652Z,0
2017-08-19T03:53:02.647Z,0
2017-08-19T03:54:02.336Z,0
2017-08-19T03:55:02.312Z,0
2017-08-19T03:56:02.950Z,0
2017-08-19T03:57:02.946Z,0
2017-08-19T03:58:02.940Z,0
2017-08-19T03:59:02.930Z,0
2017-08-19T04:00:02.612Z,0
2017-08-19T04:01:02.307Z,0
2017-08-19T04:02:02.625Z,0
2017-08-19T04:03:02.922Z,0
2017-08-19T04:04:02.594Z,0
2017-08-19T04:05:02.913Z,0
2017-08-19T04:06:02.918Z,5
2017-08-19T04:07:02.574Z,5
2017-08-19T04:08:02.581Z,5
2017-08-19T04:09:02.891Z,5
2017-08-19T04:10:02.883Z,5
2017-08-19T04:11:02.871Z,5
2017-08-19T04:12:02.556Z,5
2017-08-19T04:13:02.230Z,5
2017-08-19T04:14:02.915Z,5
2017-08-19T04:15:02.565Z,10
2017-08-19T04:16:02.862Z,10
2017-08-19T04:17:02.521Z,10
2017-08-19T04:18:02.837Z,10
2017-08-19T04:19:02.207Z,10
2017-08-19T04:20:02.502Z,10
2017-08-19T04:21:02.499Z,15
2017-08-19T04:22:02.838Z,15
2017-08-19T04:23:02.818Z,15
2017-08-19T04:24:02.497Z,15
2017-08-19T04:25:02.483Z,20
2017-08-19T04:26:02.835Z,20
2017-08-19T04:27:02.784Z,20
2017-08-19T04:28:02.817Z,25
2017-08-19T04:29:02.485Z,25
2017-08-19T04:30:02.782Z,25
2017-08-19T04:31:02.139Z,25
2017-08-19T04:32:02.766Z,25
2017-08-19T04:33:02.454Z,25
2017-08-19T04:34:02.119Z,25
2017-08-19T04:35:02.437Z,25
2017-08-19T04:36:02.123Z,30
2017-08-19T04:37:02.442Z,30
2017-08-19T04:38:02.406Z,30
2017-08-19T04:39:02.423Z,30
2017-08-19T04:40:02.714Z,30
2017-08-19T04:41:02.092Z,30
2017-08-19T04:42:01.739Z,30
2017-08-19T04:43:02.389Z,30
2017-08-19T04:44:02.372Z,30
2017-08-19T04:45:02.701Z,30
2017-08-19T04:46:02.366Z,30
2017-08-19T04:47:01.728Z,30
2017-08-19T04:48:02.374Z,30
2017-08-19T04:49:01.714Z,35
2017-08-19T04:50:02.673Z,35
2017-08-19T04:51:02.655Z,40
2017-08-19T04:52:02.327Z,40
2017-08-19T04:53:02.650Z,45
2017-08-19T04:54:02.319Z,45
2017-08-19T04:55:02.631Z,45
2017-08-19T04:56:02.670Z,45
2017-08-19T04:57:02.645Z,45
2017-08-19T04:58:02.619Z,45
2017-08-19T04:59:02.622Z,40
2017-08-19T05:00:02.412Z,40
2017-08-19T05:01:01.651Z,45
2017-08-19T05:02:01.973Z,45
2017-08-19T05:03:02.590Z,45
2017-08-19T05:04:02.266Z,50
2017-08-19T05:05:02.605Z,50
2017-08-19T05:06:02.266Z,50
2017-08-19T05:07:02.588Z,50
2017-08-19T05:08:01.926Z,50
2017-08-19T05:09:02.576Z,55
2017-08-19T05:10:01.911Z,55
2017-08-19T05:11:01.916Z,60
2017-08-19T05:12:02.219Z,60
2017-08-19T05:13:01.906Z,60
2017-08-19T05:14:02.245Z,60
2017-08-19T05:15:02.531Z,60
2017-08-19T05:16:01.896Z,60
2017-08-19T05:17:02.525Z,55
2017-08-19T05:18:01.904Z,60
2017-08-19T05:19:02.542Z,60
2017-08-19T05:20:02.528Z,60
2017-08-19T05:21:02.198Z,60
2017-08-19T05:22:02.236Z,60
2017-08-19T05:23:02.509Z,60
2017-08-19T05:24:01.836Z,55
2017-08-19T05:25:02.152Z,45
2017-08-19T05:26:02.175Z,55
2017-08-19T05:27:02.469Z,60
2017-08-19T05:28:02.141Z,60
2017-08-19T05:29:02.460Z,60
2017-08-19T05:30:02.144Z,60
2017-08-19T05:31:02.451Z,65
2017-08-19T05:32:02.437Z,70
2017-08-19T05:33:02.134Z,75
2017-08-19T05:34:02.144Z,80
2017-08-19T05:35:01.802Z,80
2017-08-19T05:36:02.117Z,85
2017-08-19T05:37:01.769Z,85
2017-08-19T05:38:02.412Z,85
2017-08-19T05:39:02.435Z,85
2017-08-19T05:40:01.446Z,85
2017-08-19T05:41:02.067Z,80
2017-08-19T05:42:02.070Z,85
2017-08-19T05:43:01.750Z,90
2017-08-19T05:44:02.060Z,95
2017-08-19T05:45:02.385Z,100
2017-08-19T05:46:02.043Z,105
2017-08-19T05:47:02.075Z,110
2017-08-19T05:48:01.415Z,115
2017-08-19T05:49:02.368Z,120
2017-08-19T05:50:02.372Z,125
2017-08-19T05:51:02.017Z,125
2017-08-19T05:52:02.026Z,125
2017-08-19T05:53:01.722Z,125
2017-08-19T05:54:02.010Z,130
2017-08-19T05:55:02.323Z,125
2017-08-19T05:56:01.365Z,125
2017-08-19T05:57:01.991Z,125
2017-08-19T05:58:01.666Z,130
2017-08-19T05:59:01.659Z,125
2017-08-19T06:00:02.299Z,125
2017-08-19T06:01:01.971Z,130
2017-08-19T06:02:02.290Z,130
2017-08-19T06:03:02.314Z,135
2017-08-19T06:04:02.307Z,135
2017-08-19T06:05:02.301Z,140
2017-08-19T06:06:01.660Z,145
2017-08-19T06:07:01.694Z,145
2017-08-19T06:08:01.659Z,145
2017-08-19T06:09:01.940Z,150
2017-08-19T06:10:02.060Z,150
2017-08-19T06:11:01.282Z,155
2017-08-19T06:12:01.941Z,160
2017-08-19T06:13:01.954Z,165
2017-08-19T06:14:01.591Z,165
2017-08-19T06:15:02.221Z,170
2017-08-19T06:16:01.920Z,175
2017-08-19T06:17:01.900Z,180
2017-08-19T06:18:02.225Z,185
2017-08-19T06:19:01.902Z,185
2017-08-19T06:20:01.236Z,185
2017-08-19T06:21:02.195Z,180
2017-08-19T06:22:01.882Z,180
2017-08-19T06:23:02.188Z,180
2017-08-19T06:24:01.862Z,180
2017-08-19T06:25:02.183Z,185
2017-08-19T06:26:02.199Z,190
2017-08-19T06:27:01.527Z,190
2017-08-19T06:28:01.853Z,195
2017-08-19T06:29:01.219Z,205
2017-08-19T06:30:02.155Z,210
2017-08-19T06:31:01.826Z,215
2017-08-19T06:32:01.831Z,215
2017-08-19T06:33:02.145Z,215
2017-08-19T06:34:01.511Z,215
2017-08-19T06:35:01.502Z,225
2017-08-19T06:36:01.822Z,230
2017-08-19T06:37:01.828Z,235
2017-08-19T06:38:01.476Z,235
2017-08-19T06:39:01.807Z,235
2017-08-19T06:40:01.477Z,235
2017-08-19T06:41:02.128Z,235
2017-08-19T06:42:01.808Z,240
2017-08-19T06:43:01.505Z,245
2017-08-19T06:44:00.831Z,245
2017-08-19T06:45:01.446Z,240
2017-08-19T06:46:01.452Z,245
2017-08-19T06:47:02.078Z,250
2017-08-19T06:48:02.092Z,255
2017-08-19T06:49:02.081Z,250
2017-08-19T06:50:02.140Z,225
2017-08-19T06:51:01.427Z,170
2017-08-19T06:52:01.448Z,165
2017-08-19T06:53:01.093Z,205
2017-08-19T06:54:01.424Z,245
2017-08-19T06:55:02.057Z,260
2017-08-19T06:56:02.056Z,270
2017-08-19T06:57:01.750Z,270
2017-08-19T06:58:02.057Z,265
2017-08-19T06:59:02.052Z,270
2017-08-19T07:00:01.715Z,270
2017-08-19T07:01:02.053Z,250
2017-08-19T07:02:02.039Z,250
2017-08-19T07:03:01.378Z,255
2017-08-19T07:04:01.697Z,260
2017-08-19T07:05:02.010Z,265
2017-08-19T07:06:01.363Z,270
2017-08-19T07:07:01.682Z,275
2017-08-19T07:08:01.373Z,275
2017-08-19T07:09:02.000Z,275
2017-08-19T07:10:01.995Z,285
2017-08-19T07:11:01.685Z,280
2017-08-19T07:12:01.662Z,270
2017-08-19T07:13:01.033Z,260
2017-08-19T07:14:02.002Z,260
2017-08-19T07:15:01.987Z,255
2017-08-19T07:16:01.011Z,240
2017-08-19T07:17:01.649Z,240
2017-08-19T07:18:01.985Z,250
2017-08-19T07:19:01.669Z,250
2017-08-19T07:20:01.643Z,260
2017-08-19T07:21:01.635Z,265
2017-08-19T07:22:01.645Z,280
2017-08-19T07:23:01.967Z,290
2017-08-19T07:24:01.343Z,310
2017-08-19T07:25:01.322Z,325
2017-08-19T07:26:01.948Z,320
2017-08-19T07:27:01.947Z,340
2017-08-19T07:28:01.613Z,345
2017-08-19T07:29:01.630Z,355
2017-08-19T07:30:01.956Z,370
2017-08-19T07:31:01.653Z,380
2017-08-19T07:32:01.283Z,385
2017-08-19T07:33:01.939Z,390
2017-08-19T07:34:00.957Z,400
2017-08-19T07:35:01.286Z,405
2017-08-19T07:36:01.611Z,415
2017-08-19T07:37:01.598Z,415
2017-08-19T07:38:01.621Z,415
2017-08-19T07:39:01.588Z,425
2017-08-19T07:40:01.281Z,420
2017-08-19T07:41:01.267Z,375
2017-08-19T07:42:01.902Z,400
2017-08-19T07:43:01.587Z,390
2017-08-19T07:44:01.575Z,405
2017-08-19T07:45:01.808Z,420
2017-08-19T07:46:01.252Z,405
2017-08-19T07:47:01.274Z,405
2017-08-19T07:48:01.573Z,415
2017-08-19T07:49:01.889Z,345
2017-08-19T07:50:01.907Z,375
2017-08-19T07:51:01.243Z,375
2017-08-19T07:52:01.262Z,385
2017-08-19T07:53:01.909Z,400
2017-08-19T07:54:01.558Z,405
2017-08-19T07:55:01.262Z,405
2017-08-19T07:56:01.562Z,420
2017-08-19T07:57:01.553Z,435
2017-08-19T07:58:01.894Z,455
2017-08-19T07:59:01.555Z,460
2017-08-19T08:00:01.883Z,465
2017-08-19T08:01:01.878Z,460
2017-08-19T08:02:01.870Z,460
2017-08-19T08:03:01.873Z,455
2017-08-19T08:04:00.921Z,455
2017-08-19T08:05:01.564Z,455
2017-08-19T08:06:01.224Z,465
2017-08-19T08:07:01.871Z,465
2017-08-19T08:08:01.878Z,445
2017-08-19T08:09:01.542Z,430
2017-08-19T08:10:01.218Z,415
2017-08-19T08:11:01.860Z,410
2017-08-19T08:12:01.533Z,410
2017-08-19T08:13:01.859Z,410
2017-08-19T08:14:01.537Z,410
2017-08-19T08:15:01.565Z,390
2017-08-19T08:16:01.532Z,370
2017-08-19T08:17:01.528Z,350
2017-08-19T08:18:01.526Z,335
2017-08-19T08:19:01.531Z,340
2017-08-19T08:20:01.527Z,335
2017-08-19T08:21:01.205Z,345
2017-08-19T08:22:01.529Z,360
2017-08-19T08:23:01.521Z,350
2017-08-19T08:24:01.862Z,340
2017-08-19T08:25:01.196Z,315
2017-08-19T08:26:01.839Z,315
2017-08-19T08:27:01.533Z,300
2017-08-19T08:28:01.520Z,290
2017-08-19T08:29:01.538Z,255
2017-08-19T08:30:01.843Z,220
2017-08-19T08:31:01.510Z,195
2017-08-19T08:32:01.504Z,180
2017-08-19T08:33:01.522Z,160
2017-08-19T08:34:01.501Z,145
2017-08-19T08:35:01.540Z,130
2017-08-19T08:36:01.867Z,125
2017-08-19T08:37:01.495Z,125
2017-08-19T08:38:01.533Z,130
2017-08-19T08:39:01.503Z,140
2017-08-19T08:40:01.489Z,160
2017-08-19T08:41:01.496Z,170
2017-08-19T08:42:01.829Z,180
2017-08-19T08:43:01.164Z,180
2017-08-19T08:44:01.491Z,185
2017-08-19T08:45:01.485Z,185
2017-08-19T08:46:00.516Z,175
2017-08-19T08:47:01.169Z,175
2017-08-19T08:48:01.166Z,165
2017-08-19T08:49:01.791Z,155
2017-08-19T08:50:01.470Z,150
2017-08-19T08:51:01.460Z,155
2017-08-19T08:52:01.136Z,165
2017-08-19T08:53:01.451Z,185
2017-08-19T08:54:01.460Z,205
2017-08-19T08:55:01.790Z,225
2017-08-19T08:56:01.465Z,240
2017-08-19T08:57:00.477Z,255
2017-08-19T08:58:00.839Z,275
2017-08-19T08:59:01.755Z,280
2017-08-19T09:00:01.753Z,300
2017-08-19T09:01:01.330Z,335
2017-08-19T09:02:01.750Z,360
2017-08-19T09:03:01.424Z,360
2017-08-19T09:04:01.436Z,370
2017-08-19T09:05:01.744Z,375
2017-08-19T09:06:01.436Z,400
2017-08-19T09:07:01.430Z,450
2017-08-19T09:08:01.421Z,445
2017-08-19T09:09:01.425Z,405
2017-08-19T09:10:01.720Z,385
2017-08-19T09:11:01.078Z,380
2017-08-19T09:12:01.105Z,375
2017-08-19T09:13:01.711Z,320
2017-08-19T09:14:01.073Z,260
2017-08-19T09:15:01.712Z,235
2017-08-19T09:16:01.066Z,240
2017-08-19T09:17:01.402Z,265
2017-08-19T09:18:01.401Z,275
2017-08-19T09:19:01.373Z,285
2017-08-19T09:20:01.695Z,295
2017-08-19T09:21:01.707Z,305
2017-08-19T09:22:01.715Z,325
2017-08-19T09:23:01.044Z,335
2017-08-19T09:24:01.691Z,335
2017-08-19T09:25:01.715Z,355
2017-08-19T09:26:01.355Z,390
2017-08-19T09:27:01.043Z,410
2017-08-19T09:28:01.389Z,410
2017-08-19T09:29:00.742Z,425
2017-08-19T09:30:00.705Z,455
2017-08-19T09:31:01.028Z,460
2017-08-19T09:32:01.682Z,430
2017-08-19T09:33:00.697Z,440
2017-08-19T09:34:01.345Z,430
2017-08-19T09:35:01.038Z,430
2017-08-19T09:36:01.650Z,440
2017-08-19T09:37:01.334Z,415
2017-08-19T09:38:01.348Z,395
2017-08-19T09:39:01.326Z,385
2017-08-19T09:40:01.000Z,385
2017-08-19T09:41:01.053Z,390
2017-08-19T09:42:01.001Z,390
2017-08-19T09:43:01.006Z,420
2017-08-19T09:44:01.640Z,450
2017-08-19T09:45:01.330Z,470
2017-08-19T09:46:01.013Z,510
2017-08-19T09:47:00.983Z,545
2017-08-19T09:48:01.312Z,550
2017-08-19T09:49:01.635Z,535
2017-08-19T09:50:01.000Z,500
2017-08-19T09:51:00.991Z,500
2017-08-19T09:52:00.990Z,535
2017-08-19T09:53:01.319Z,550
2017-08-19T09:54:00.672Z,510
2017-08-19T09:55:00.990Z,510
2017-08-19T09:56:00.975Z,540
2017-08-19T09:57:00.682Z,505
2017-08-19T09:58:01.307Z,485
2017-08-19T09:59:00.964Z,525
2017-08-19T10:00:01.316Z,510
2017-08-19T10:01:01.280Z,550
2017-08-19T10:02:01.598Z,555
2017-08-19T10:03:00.980Z,555
2017-08-19T10:04:01.292Z,560
2017-08-19T10:05:00.986Z,550
2017-08-19T10:06:01.285Z,540
2017-08-19T10:07:01.272Z,530
2017-08-19T10:08:00.628Z,510
2017-08-19T10:09:01.627Z,490
2017-08-19T10:10:01.270Z,490
2017-08-19T10:11:00.961Z,500
2017-08-19T10:12:01.267Z,475
2017-08-19T10:13:00.624Z,470
2017-08-19T10:14:01.587Z,460
2017-08-19T10:15:00.985Z,455
2017-08-19T10:16:01.265Z,475
2017-08-19T10:17:00.705Z,455
2017-08-19T10:18:01.261Z,410
2017-08-19T10:19:00.940Z,385
2017-08-19T10:20:01.265Z,370
2017-08-19T10:21:01.256Z,355
2017-08-19T10:22:00.941Z,355
2017-08-19T10:23:00.945Z,380
2017-08-19T10:24:01.283Z,380
2017-08-19T10:25:01.263Z,385
2017-08-19T10:26:01.248Z,485
2017-08-19T10:27:01.568Z,485
2017-08-19T10:28:00.926Z,510
2017-08-19T10:29:01.575Z,430
2017-08-19T10:30:01.589Z,365
2017-08-19T10:31:01.243Z,305
2017-08-19T10:32:00.924Z,275
2017-08-19T10:33:01.564Z,250
2017-08-19T10:34:01.239Z,310
2017-08-19T10:35:00.602Z,315
2017-08-19T10:36:00.920Z,240
2017-08-19T10:37:01.586Z,220
2017-08-19T10:38:01.245Z,280
2017-08-19T10:39:01.577Z,395
2017-08-19T10:40:00.594Z,385
2017-08-19T10:41:00.949Z,360
2017-08-19T10:42:01.282Z,320
2017-08-19T10:43:01.238Z,290
2017-08-19T10:44:01.561Z,310
2017-08-19T10:45:01.550Z,305
2017-08-19T10:46:01.263Z,260
2017-08-19T10:47:00.928Z,250
2017-08-19T10:48:00.923Z,235
2017-08-19T10:49:01.239Z,285
2017-08-19T10:50:00.924Z,250
2017-08-19T10:51:01.549Z,250
2017-08-19T10:52:01.241Z,255
2017-08-19T10:53:00.909Z,270
2017-08-19T10:54:01.549Z,255
2017-08-19T10:55:00.920Z,200
2017-08-19T10:56:00.597Z,180
2017-08-19T10:57:01.553Z,170
2017-08-19T10:58:01.257Z,170
2017-08-19T10:59:01.230Z,155
2017-08-19T11:00:01.216Z,155
2017-08-19T11:01:00.915Z,195
2017-08-19T11:02:01.211Z,195
2017-08-19T11:03:01.209Z,195
2017-08-19T11:04:01.215Z,185
2017-08-19T11:05:00.889Z,170
2017-08-19T11:06:01.250Z,170
2017-08-19T11:07:01.225Z,165
2017-08-19T11:08:00.883Z,160
2017-08-19T11:09:00.579Z,160
2017-08-19T11:10:00.570Z,160
2017-08-19T11:11:01.232Z,170
2017-08-19T11:12:01.205Z,170
2017-08-19T11:13:01.515Z,190
2017-08-19T11:14:01.525Z,195
2017-08-19T11:15:00.911Z,185
2017-08-19T11:16:01.509Z,165
2017-08-19T11:17:00.564Z,160
2017-08-19T11:18:01.200Z,160
2017-08-19T11:19:01.534Z,160
2017-08-19T11:20:01.191Z,170
2017-08-19T11:21:00.869Z,195
2017-08-19T11:22:01.179Z,220
2017-08-19T11:23:00.856Z,255
2017-08-19T11:24:01.190Z,270
2017-08-19T11:25:01.179Z,300
2017-08-19T11:26:00.850Z,365
2017-08-19T11:27:00.874Z,405
2017-08-19T11:28:01.173Z,360
2017-08-19T11:29:01.492Z,380
2017-08-19T11:30:01.189Z,395
2017-08-19T11:31:01.175Z,375
2017-08-19T11:32:00.849Z,330
2017-08-19T11:33:00.519Z,330
2017-08-19T11:34:01.508Z,330
2017-08-19T11:35:00.843Z,340
2017-08-19T11:36:01.501Z,335
2017-08-19T11:37:00.518Z,295
2017-08-19T11:38:00.852Z,280
2017-08-19T11:39:01.174Z,275
2017-08-19T11:40:00.843Z,260
2017-08-19T11:41:00.846Z,215
2017-08-19T11:42:01.168Z,220
2017-08-19T11:43:01.154Z,260
2017-08-19T11:44:00.836Z,260
2017-08-19T11:45:01.178Z,255
2017-08-19T11:46:01.154Z,270
2017-08-19T11:47:01.474Z,265
2017-08-19T11:48:01.473Z,265
2017-08-19T11:49:01.479Z,280
2017-08-19T11:50:01.516Z,290
2017-08-19T11:51:01.171Z,325
2017-08-19T11:52:01.161Z,300
2017-08-19T11:53:01.471Z,240
2017-08-19T11:54:01.483Z,225
2017-08-19T11:55:00.854Z,245
2017-08-19T11:56:01.158Z,255
2017-08-19T11:57:00.505Z,270
2017-08-19T11:58:00.833Z,240
2017-08-19T11:59:01.166Z,215
2017-08-19T12:00:00.819Z,220
2017-08-19T12:01:01.148Z,230
2017-08-19T12:02:01.466Z,240
2017-08-19T12:03:01.138Z,235
2017-08-19T12:04:01.472Z,190
2017-08-19T12:05:00.843Z,180
2017-08-19T12:06:00.818Z,195
2017-08-19T12:07:00.823Z,240
2017-08-19T12:08:00.852Z,300
2017-08-19T12:09:00.835Z,325
2017-08-19T12:10:00.809Z,370
2017-08-19T12:11:00.489Z,410
2017-08-19T12:12:00.836Z,350
2017-08-19T12:13:01.448Z,260
2017-08-19T12:14:01.125Z,210
2017-08-19T12:15:00.826Z,195
2017-08-19T12:16:01.121Z,215
2017-08-19T12:17:00.812Z,195
2017-08-19T12:18:00.820Z,170
2017-08-19T12:19:01.462Z,180
2017-08-19T12:20:01.449Z,165
2017-08-19T12:21:01.446Z,155
2017-08-19T12:22:01.141Z,155
2017-08-19T12:23:01.121Z,145
2017-08-19T12:24:00.491Z,165
2017-08-19T12:25:01.130Z,180
2017-08-19T12:26:00.800Z,205
2017-08-19T12:27:01.118Z,195
2017-08-19T12:28:01.464Z,180
2017-08-19T12:29:01.125Z,170
2017-08-19T12:30:01.108Z,170
2017-08-19T12:31:01.444Z,180
2017-08-19T12:32:00.804Z,185
2017-08-19T12:33:00.783Z,185
2017-08-19T12:34:00.794Z,170
2017-08-19T12:35:01.119Z,155
2017-08-19T12:36:00.781Z,155
2017-08-19T12:37:01.427Z,160
2017-08-19T12:38:01.100Z,165
2017-08-19T12:39:01.450Z,195
2017-08-19T12:40:01.416Z,230
2017-08-19T12:41:00.773Z,210
2017-08-19T12:42:01.423Z,165
2017-08-19T12:43:01.100Z,155
2017-08-19T12:44:00.779Z,155
2017-08-19T12:45:01.088Z,155
2017-08-19T12:46:01.413Z,155
2017-08-19T12:47:01.084Z,160
2017-08-19T12:48:01.091Z,165
2017-08-19T12:49:01.401Z,170
2017-08-19T12:50:01.091Z,170
2017-08-19T12:51:01.421Z,170
2017-08-19T12:52:01.095Z,190
2017-08-19T12:53:01.115Z,215
2017-08-19T12:54:00.764Z,225
2017-08-19T12:55:01.426Z,250
2017-08-19T12:56:01.422Z,280
2017-08-19T12:57:00.770Z,265
2017-08-19T12:58:00.752Z,265
2017-08-19T12:59:01.081Z,255
2017-08-19T13:00:01.073Z,250
2017-08-19T13:01:01.078Z,250
2017-08-19T13:02:01.087Z,270
2017-08-19T13:03:00.745Z,305
2017-08-19T13:04:00.760Z,340
2017-08-19T13:05:01.394Z,360
2017-08-19T13:06:00.750Z,355
2017-08-19T13:07:00.759Z,310
2017-08-19T13:08:01.082Z,280
2017-08-19T13:09:01.401Z,290
2017-08-19T13:10:00.759Z,295
2017-08-19T13:11:01.069Z,330
2017-08-19T13:12:01.404Z,335
2017-08-19T13:13:01.060Z,305
2017-08-19T13:14:01.405Z,275
2017-08-19T13:15:01.410Z,255
2017-08-19T13:16:00.421Z,260
2017-08-19T13:17:01.063Z,290
2017-08-19T13:18:00.735Z,310
2017-08-19T13:19:01.401Z,270
2017-08-19T13:20:00.749Z,225
2017-08-19T13:21:00.740Z,185
2017-08-19T13:22:01.061Z,175
2017-08-19T13:23:01.051Z,175
2017-08-19T13:24:01.405Z,190
2017-08-19T13:25:00.728Z,215
2017-08-19T13:26:01.058Z,200
2017-08-19T13:27:01.054Z,220
2017-08-19T13:28:00.727Z,220
2017-08-19T13:29:01.080Z,240
2017-08-19T13:30:01.048Z,275
2017-08-19T13:31:01.075Z,290
2017-08-19T13:32:01.086Z,255
2017-08-19T13:33:01.047Z,260
2017-08-19T13:34:01.051Z,225
2017-08-19T13:35:01.373Z,190
2017-08-19T13:36:00.724Z,185
2017-08-19T13:37:01.041Z,200
2017-08-19T13:38:00.741Z,180
2017-08-19T13:39:01.374Z,200
2017-08-19T13:40:01.058Z,235
2017-08-19T13:41:01.033Z,240
2017-08-19T13:42:01.036Z,255
2017-08-19T13:43:01.358Z,245
2017-08-19T13:44:01.069Z,240
2017-08-19T13:45:00.733Z,235
2017-08-19T13:46:00.729Z,255
2017-08-19T13:47:00.425Z,285
2017-08-19T13:48:00.731Z,280
2017-08-19T13:49:01.375Z,300
2017-08-19T13:50:01.037Z,305
2017-08-19T13:51:01.484Z,305
2017-08-19T13:52:01.371Z,315
2017-08-19T13:53:00.857Z,335
2017-08-19T13:54:00.732Z,310
2017-08-19T13:55:01.049Z,275
2017-08-19T13:56:00.707Z,240
2017-08-19T13:57:01.354Z,225
2017-08-19T13:58:00.699Z,220
2017-08-19T13:59:01.082Z,225
2017-08-19T14:00:01.333Z,215
2017-08-19T14:01:01.389Z,255
2017-08-19T14:02:01.031Z,270
2017-08-19T14:03:01.012Z,230
2017-08-19T14:04:01.027Z,220
2017-08-19T14:05:01.020Z,245
2017-08-19T14:06:01.029Z,240